PWSweather.com
Personal Weather Stations
Station Observations
DW6359
Southwest Cambria, Cambria, WI 53923

Southwest CambriaCambria, WI 53923

Lat: 43.541194, Lon: -89.11275

Elevation: 945

Station Type: Davis Vantage Pro2

http://home.centurytel.net/weathercambria/wxcambria.html

High Low Average
Temperature 32.3°F0.2°C 23.0°F-5.0°C 25.0°F-3.9°C
Dew Point 27.1°F-2.7°C 16.7°F-8.5°C 20.1°F-6.6°C
Winds 11.0 mph 17.7 kmh Calm Calm 2.0 mph SW3.2 kmh SW
Wind Gusts 11.0 mph17.7 kmh -- 1.0 mph1.6 kmh
Humidity 87% 72% 81%
Pressure 30.57 in1035.2 mb 30.30 in1026.1 mb -
Precipitation 0.00 in0.0 mm - -
Hour Temp Dew Point Humidity Winds Wind Gusts Pressure Precip Precip Rate Daily Precip Total
12:00 AM 31.0°F-0.6°C 27.0°F-2.8°C 85% Calm Calm -- 30.28 in1025.4 mb 0.00 in0.0 mm 0.00 in0.0 mm 0.00 in0.0 mm
12:05 AM 31.1°F-0.5°C 27.1°F-2.7°C 85% Calm Calm -- 30.28 in1025.4 mb 0.00 in0.0 mm 0.00 in0.0 mm 0.00 in0.0 mm
12:10 AM 31.8°F-0.1°C 27.8°F-2.3°C 85% 4.0 mph WNW6.4 kmh WNW -- 30.28 in1025.4 mb 0.00 in0.0 mm 0.00 in0.0 mm 0.00 in0.0 mm
12:15 AM 32.8°F0.4°C 28.8°F-1.8°C 85% 4.0 mph NW6.4 kmh NW -- 30.29 in1025.7 mb 0.00 in0.0 mm 0.00 in0.0 mm 0.00 in0.0 mm
12:20 AM 33.5°F0.8°C 28.9°F-1.7°C 83% 5.0 mph NW8.0 kmh NW -- 30.29 in1025.7 mb 0.00 in0.0 mm 0.00 in0.0 mm 0.00 in0.0 mm
12:25 AM 33.7°F0.9°C 28.8°F-1.8°C 82% 4.0 mph NW6.4 kmh NW -- 30.29 in1025.7 mb 0.00 in0.0 mm 0.00 in0.0 mm 0.00 in0.0 mm
12:30 AM 33.7°F0.9°C 28.8°F-1.8°C 82% 3.0 mph NNW4.8 kmh NNW -- 30.29 in1025.7 mb 0.00 in0.0 mm 0.00 in0.0 mm 0.00 in0.0 mm
12:35 AM 33.4°F0.8°C 28.5°F-1.9°C 82% 6.0 mph NW9.7 kmh NW -- 30.29 in1025.7 mb 0.00 in0.0 mm 0.00 in0.0 mm 0.00 in0.0 mm
12:40 AM 33.1°F0.6°C 27.9°F-2.3°C 81% 4.0 mph NW6.4 kmh NW -- 30.29 in1025.7 mb 0.00 in0.0 mm 0.00 in0.0 mm 0.00 in0.0 mm
12:45 AM 32.9°F0.5°C 27.7°F-2.4°C 81% 7.0 mph WNW11.3 kmh WNW -- 30.30 in1026.1 mb 0.00 in0.0 mm 0.00 in0.0 mm 0.00 in0.0 mm
12:50 AM 32.8°F0.4°C 27.6°F-2.4°C 81% 8.0 mph NW12.9 kmh NW 14.0 mph22.5 kmh 30.30 in1026.1 mb 0.00 in0.0 mm 0.00 in0.0 mm 0.00 in0.0 mm
12:55 AM 32.5°F0.3°C 27.3°F-2.6°C 81% 9.0 mph NW14.5 kmh NW 14.0 mph22.5 kmh 30.30 in1026.1 mb 0.00 in0.0 mm 0.00 in0.0 mm 0.00 in0.0 mm
01:00 AM 32.3°F0.2°C 27.1°F-2.7°C 81% 11.0 mph NW17.7 kmh NW -- 30.30 in1026.1 mb 0.00 in0.0 mm 0.00 in0.0 mm 0.00 in0.0 mm
01:05 AM 31.8°F-0.1°C 26.3°F-3.2°C 80% 11.0 mph NW17.7 kmh NW -- 30.31 in1026.4 mb 0.00 in0.0 mm 0.00 in0.0 mm 0.00 in0.0 mm
01:10 AM 31.5°F-0.3°C 26.1°F-3.3°C 80% 5.0 mph NW8.0 kmh NW -- 30.31 in1026.4 mb 0.00 in0.0 mm 0.00 in0.0 mm 0.00 in0.0 mm
01:15 AM 31.3°F-0.4°C 25.9°F-3.4°C 80% 3.0 mph NW4.8 kmh NW -- 30.31 in1026.4 mb 0.00 in0.0 mm 0.00 in0.0 mm 0.00 in0.0 mm
01:20 AM 31.2°F-0.4°C 25.8°F-3.4°C 80% 7.0 mph NW11.3 kmh NW -- 30.31 in1026.4 mb 0.00 in0.0 mm 0.00 in0.0 mm 0.00 in0.0 mm
01:25 AM 31.0°F-0.6°C 25.6°F-3.6°C 80% 6.0 mph NW9.7 kmh NW -- 30.31 in1026.4 mb 0.00 in0.0 mm 0.00 in0.0 mm 0.00 in0.0 mm
01:30 AM 30.9°F-0.6°C 25.2°F-3.8°C 79% 3.0 mph NW4.8 kmh NW -- 30.31 in1026.4 mb 0.00 in0.0 mm 0.00 in0.0 mm 0.00 in0.0 mm
01:35 AM 30.7°F-0.7°C 25.0°F-3.9°C 79% 6.0 mph W9.7 kmh W -- 30.32 in1026.8 mb 0.00 in0.0 mm 0.00 in0.0 mm 0.00 in0.0 mm
01:40 AM 30.5°F-0.8°C 24.5°F-4.2°C 78% 5.0 mph WNW8.0 kmh WNW 11.0 mph17.7 kmh 30.32 in1026.8 mb 0.00 in0.0 mm 0.00 in0.0 mm 0.00 in0.0 mm
01:45 AM 30.3°F-0.9°C 24.0°F-4.4°C 77% 7.0 mph NW11.3 kmh NW 11.0 mph17.7 kmh 30.32 in1026.8 mb 0.00 in0.0 mm 0.00 in0.0 mm 0.00 in0.0 mm
01:50 AM 30.2°F-1.0°C 23.9°F-4.5°C 77% 3.0 mph NW4.8 kmh NW -- 30.32 in1026.8 mb 0.00 in0.0 mm 0.00 in0.0 mm 0.00 in0.0 mm
01:55 AM 30.0°F-1.1°C 23.7°F-4.6°C 77% 3.0 mph NW4.8 kmh NW -- 30.32 in1026.8 mb 0.00 in0.0 mm 0.00 in0.0 mm 0.00 in0.0 mm
02:00 AM 29.8°F-1.2°C 23.8°F-4.6°C 78% 5.0 mph NW8.0 kmh NW -- 30.33 in1027.1 mb 0.00 in0.0 mm 0.00 in0.0 mm 0.00 in0.0 mm
02:05 AM 29.7°F-1.3°C 23.7°F-4.6°C 78% 4.0 mph NW6.4 kmh NW -- 30.33 in1027.1 mb 0.00 in0.0 mm 0.00 in0.0 mm 0.00 in0.0 mm
02:10 AM 29.5°F-1.4°C 23.5°F-4.7°C 78% 2.0 mph NW3.2 kmh NW -- 30.33 in1027.1 mb 0.00 in0.0 mm 0.00 in0.0 mm 0.00 in0.0 mm
02:15 AM 29.4°F-1.4°C 23.4°F-4.8°C 78% 2.0 mph NW3.2 kmh NW -- 30.34 in1027.4 mb 0.00 in0.0 mm 0.00 in0.0 mm 0.00 in0.0 mm
02:20 AM 29.3°F-1.5°C 23.6°F-4.7°C 79% 4.0 mph NW6.4 kmh NW -- 30.34 in1027.4 mb 0.00 in0.0 mm 0.00 in0.0 mm 0.00 in0.0 mm
02:25 AM 29.2°F-1.6°C 23.5°F-4.7°C 79% 2.0 mph NW3.2 kmh NW -- 30.34 in1027.4 mb 0.00 in0.0 mm 0.00 in0.0 mm 0.00 in0.0 mm
02:30 AM 29.0°F-1.7°C 23.3°F-4.8°C 79% 3.0 mph NW4.8 kmh NW 6.0 mph9.7 kmh 30.34 in1027.4 mb 0.00 in0.0 mm 0.00 in0.0 mm 0.00 in0.0 mm
02:35 AM 28.9°F-1.7°C 23.2°F-4.9°C 79% 3.0 mph NW4.8 kmh NW 6.0 mph9.7 kmh 30.34 in1027.4 mb 0.00 in0.0 mm 0.00 in0.0 mm 0.00 in0.0 mm
02:40 AM 28.7°F-1.8°C 23.0°F-5.0°C 79% 3.0 mph NW4.8 kmh NW -- 30.35 in1027.8 mb 0.00 in0.0 mm 0.00 in0.0 mm 0.00 in0.0 mm
02:45 AM 28.6°F-1.9°C 23.2°F-4.9°C 80% 2.0 mph NW3.2 kmh NW -- 30.35 in1027.8 mb 0.00 in0.0 mm 0.00 in0.0 mm 0.00 in0.0 mm
02:50 AM 28.4°F-2.0°C 23.0°F-5.0°C 80% Calm Calm -- 30.35 in1027.8 mb 0.00 in0.0 mm 0.00 in0.0 mm 0.00 in0.0 mm
02:55 AM 28.3°F-2.1°C 22.9°F-5.1°C 80% 3.0 mph NW4.8 kmh NW -- 30.35 in1027.8 mb 0.00 in0.0 mm 0.00 in0.0 mm 0.00 in0.0 mm
03:00 AM 28.2°F-2.1°C 22.8°F-5.1°C 80% 4.0 mph NW6.4 kmh NW -- 30.35 in1027.8 mb 0.00 in0.0 mm 0.00 in0.0 mm 0.00 in0.0 mm
03:05 AM 28.1°F-2.2°C 23.0°F-5.0°C 81% 2.0 mph NW3.2 kmh NW -- 30.35 in1027.8 mb 0.00 in0.0 mm 0.00 in0.0 mm 0.00 in0.0 mm
03:10 AM 27.9°F-2.3°C 22.8°F-5.1°C 81% 2.0 mph NW3.2 kmh NW -- 30.35 in1027.8 mb 0.00 in0.0 mm 0.00 in0.0 mm 0.00 in0.0 mm
03:15 AM 27.8°F-2.3°C 22.7°F-5.2°C 81% 2.0 mph NW3.2 kmh NW -- 30.35 in1027.8 mb 0.00 in0.0 mm 0.00 in0.0 mm 0.00 in0.0 mm
03:20 AM 27.7°F-2.4°C 22.6°F-5.2°C 81% Calm Calm 4.0 mph6.4 kmh 30.35 in1027.8 mb 0.00 in0.0 mm 0.00 in0.0 mm 0.00 in0.0 mm
03:25 AM 27.6°F-2.4°C 22.8°F-5.1°C 82% Calm Calm 4.0 mph6.4 kmh 30.35 in1027.8 mb 0.00 in0.0 mm 0.00 in0.0 mm 0.00 in0.0 mm
03:30 AM 27.4°F-2.6°C 22.6°F-5.2°C 82% Calm Calm -- 30.35 in1027.8 mb 0.00 in0.0 mm 0.00 in0.0 mm 0.00 in0.0 mm
03:35 AM 27.2°F-2.7°C 22.4°F-5.3°C 82% Calm Calm -- 30.35 in1027.8 mb 0.00 in0.0 mm 0.00 in0.0 mm 0.00 in0.0 mm
03:40 AM 27.0°F-2.8°C 22.3°F-5.4°C 82% Calm Calm -- 30.35 in1027.8 mb 0.00 in0.0 mm 0.00 in0.0 mm 0.00 in0.0 mm
03:45 AM 26.9°F-2.8°C 22.4°F-5.3°C 83% Calm Calm -- 30.36 in1028.1 mb 0.00 in0.0 mm 0.00 in0.0 mm 0.00 in0.0 mm
03:50 AM 26.7°F-2.9°C 22.2°F-5.4°C 83% Calm Calm -- 30.36 in1028.1 mb 0.00 in0.0 mm 0.00 in0.0 mm 0.00 in0.0 mm
03:55 AM 26.7°F-2.9°C 22.2°F-5.4°C 83% Calm Calm -- 30.36 in1028.1 mb 0.00 in0.0 mm 0.00 in0.0 mm 0.00 in0.0 mm
04:00 AM 26.8°F-2.9°C 22.3°F-5.4°C 83% Calm Calm -- 30.35 in1027.8 mb 0.00 in0.0 mm 0.00 in0.0 mm 0.00 in0.0 mm
04:05 AM 26.8°F-2.9°C 22.3°F-5.4°C 83% Calm Calm -- 30.35 in1027.8 mb 0.00 in0.0 mm 0.00 in0.0 mm 0.00 in0.0 mm
04:10 AM 26.8°F-2.9°C 22.1°F-5.5°C 82% Calm Calm -- 30.35 in1027.8 mb 0.00 in0.0 mm 0.00 in0.0 mm 0.00 in0.0 mm
04:15 AM 26.8°F-2.9°C 22.1°F-5.5°C 82% 4.0 mph NW6.4 kmh NW -- 30.36 in1028.1 mb 0.00 in0.0 mm 0.00 in0.0 mm 0.00 in0.0 mm
04:20 AM 26.8°F-2.9°C 22.1°F-5.5°C 82% 2.0 mph NW3.2 kmh NW -- 30.36 in1028.1 mb 0.00 in0.0 mm 0.00 in0.0 mm 0.00 in0.0 mm
04:25 AM 26.9°F-2.8°C 22.2°F-5.4°C 82% 2.0 mph WNW3.2 kmh WNW -- 30.36 in1028.1 mb 0.00 in0.0 mm 0.00 in0.0 mm 0.00 in0.0 mm
04:30 AM 26.7°F-2.9°C 22.0°F-5.6°C 82% 2.0 mph NW3.2 kmh NW -- 30.36 in1028.1 mb 0.00 in0.0 mm 0.00 in0.0 mm 0.00 in0.0 mm
04:35 AM 26.7°F-2.9°C 22.0°F-5.6°C 82% 3.0 mph WNW4.8 kmh WNW -- 30.36 in1028.1 mb 0.00 in0.0 mm 0.00 in0.0 mm 0.00 in0.0 mm
04:40 AM 26.6°F-3.0°C 21.9°F-5.6°C 82% 1.0 mph NW1.6 kmh NW -- 30.36 in1028.1 mb 0.00 in0.0 mm 0.00 in0.0 mm 0.00 in0.0 mm
04:45 AM 26.4°F-3.1°C 21.7°F-5.7°C 82% 2.0 mph NW3.2 kmh NW -- 30.36 in1028.1 mb 0.00 in0.0 mm 0.00 in0.0 mm 0.00 in0.0 mm
04:50 AM 26.2°F-3.2°C 21.5°F-5.8°C 82% 2.0 mph NW3.2 kmh NW -- 30.36 in1028.1 mb 0.00 in0.0 mm 0.00 in0.0 mm 0.00 in0.0 mm
04:55 AM 26.1°F-3.3°C 21.4°F-5.9°C 82% 5.0 mph NW8.0 kmh NW -- 30.36 in1028.1 mb 0.00 in0.0 mm 0.00 in0.0 mm 0.00 in0.0 mm
05:00 AM 26.0°F-3.3°C 21.0°F-6.1°C 81% 6.0 mph NW9.7 kmh NW 7.0 mph11.3 kmh 30.36 in1028.1 mb 0.00 in0.0 mm 0.00 in0.0 mm 0.00 in0.0 mm
05:05 AM 25.9°F-3.4°C 20.6°F-6.3°C 80% 1.0 mph NW1.6 kmh NW 7.0 mph11.3 kmh 30.37 in1028.4 mb 0.00 in0.0 mm 0.00 in0.0 mm 0.00 in0.0 mm
05:10 AM 25.8°F-3.4°C 20.2°F-6.6°C 79% 2.0 mph NW3.2 kmh NW -- 30.37 in1028.4 mb 0.00 in0.0 mm 0.00 in0.0 mm 0.00 in0.0 mm
05:15 AM 25.7°F-3.5°C 20.1°F-6.6°C 79% 1.0 mph NW1.6 kmh NW -- 30.37 in1028.4 mb 0.00 in0.0 mm 0.00 in0.0 mm 0.00 in0.0 mm
05:20 AM 25.6°F-3.6°C 20.0°F-6.7°C 79% 3.0 mph NW4.8 kmh NW -- 30.37 in1028.4 mb 0.00 in0.0 mm 0.00 in0.0 mm 0.00 in0.0 mm
05:25 AM 25.5°F-3.6°C 19.6°F-6.9°C 78% 4.0 mph NW6.4 kmh NW -- 30.37 in1028.4 mb 0.00 in0.0 mm 0.00 in0.0 mm 0.00 in0.0 mm
05:30 AM 25.4°F-3.7°C 19.5°F-6.9°C 78% 6.0 mph NW9.7 kmh NW -- 30.37 in1028.4 mb 0.00 in0.0 mm 0.00 in0.0 mm 0.00 in0.0 mm
05:35 AM 25.3°F-3.7°C 19.4°F-7.0°C 78% 6.0 mph NW9.7 kmh NW -- 30.37 in1028.4 mb 0.00 in0.0 mm 0.00 in0.0 mm 0.00 in0.0 mm
05:40 AM 25.2°F-3.8°C 19.3°F-7.1°C 78% 2.0 mph NW3.2 kmh NW -- 30.37 in1028.4 mb 0.00 in0.0 mm 0.00 in0.0 mm 0.00 in0.0 mm
05:45 AM 25.0°F-3.9°C 19.1°F-7.2°C 78% 3.0 mph WNW4.8 kmh WNW -- 30.38 in1028.8 mb 0.00 in0.0 mm 0.00 in0.0 mm 0.00 in0.0 mm
05:50 AM 24.9°F-3.9°C 19.0°F-7.2°C 78% 2.0 mph NW3.2 kmh NW 6.0 mph9.7 kmh 30.38 in1028.8 mb 0.00 in0.0 mm 0.00 in0.0 mm 0.00 in0.0 mm
05:55 AM 24.8°F-4.0°C 19.2°F-7.1°C 79% 2.0 mph NW3.2 kmh NW 6.0 mph9.7 kmh 30.37 in1028.4 mb 0.00 in0.0 mm 0.00 in0.0 mm 0.00 in0.0 mm
06:00 AM 24.8°F-4.0°C 19.2°F-7.1°C 79% 4.0 mph NW6.4 kmh NW -- 30.37 in1028.4 mb 0.00 in0.0 mm 0.00 in0.0 mm 0.00 in0.0 mm
06:05 AM 24.7°F-4.1°C 18.8°F-7.3°C 78% Calm Calm -- 30.37 in1028.4 mb 0.00 in0.0 mm 0.00 in0.0 mm 0.00 in0.0 mm
06:10 AM 24.6°F-4.1°C 18.7°F-7.4°C 78% 1.0 mph NW1.6 kmh NW -- 30.38 in1028.8 mb 0.00 in0.0 mm 0.00 in0.0 mm 0.00 in0.0 mm
06:15 AM 24.5°F-4.2°C 18.6°F-7.4°C 78% 2.0 mph NW3.2 kmh NW -- 30.38 in1028.8 mb 0.00 in0.0 mm 0.00 in0.0 mm 0.00 in0.0 mm
06:20 AM 24.4°F-4.2°C 18.5°F-7.5°C 78% 5.0 mph NW8.0 kmh NW -- 30.38 in1028.8 mb 0.00 in0.0 mm 0.00 in0.0 mm 0.00 in0.0 mm
06:25 AM 24.3°F-4.3°C 18.1°F-7.7°C 77% 5.0 mph NW8.0 kmh NW -- 30.38 in1028.8 mb 0.00 in0.0 mm 0.00 in0.0 mm 0.00 in0.0 mm
06:30 AM 24.3°F-4.3°C 17.8°F-7.9°C 76% 3.0 mph NW4.8 kmh NW -- 30.38 in1028.8 mb 0.00 in0.0 mm 0.00 in0.0 mm 0.00 in0.0 mm
06:35 AM 24.3°F-4.3°C 17.8°F-7.9°C 76% Calm Calm -- 30.38 in1028.8 mb 0.00 in0.0 mm 0.00 in0.0 mm 0.00 in0.0 mm
06:40 AM 24.2°F-4.3°C 17.7°F-7.9°C 76% Calm Calm 7.0 mph11.3 kmh 30.38 in1028.8 mb 0.00 in0.0 mm 0.00 in0.0 mm 0.00 in0.0 mm
06:45 AM 24.2°F-4.3°C 17.7°F-7.9°C 76% Calm Calm 7.0 mph11.3 kmh 30.38 in1028.8 mb 0.00 in0.0 mm 0.00 in0.0 mm 0.00 in0.0 mm
06:50 AM 24.1°F-4.4°C 17.7°F-7.9°C 76% Calm Calm -- 30.38 in1028.8 mb 0.00 in0.0 mm 0.00 in0.0 mm 0.00 in0.0 mm
06:55 AM 24.1°F-4.4°C 17.7°F-7.9°C 76% Calm Calm -- 30.38 in1028.8 mb 0.00 in0.0 mm 0.00 in0.0 mm 0.00 in0.0 mm
07:00 AM 24.1°F-4.4°C 17.7°F-7.9°C 76% Calm Calm -- 30.39 in1029.1 mb 0.00 in0.0 mm 0.00 in0.0 mm 0.00 in0.0 mm
07:05 AM 24.1°F-4.4°C 17.7°F-7.9°C 76% Calm Calm -- 30.39 in1029.1 mb 0.00 in0.0 mm 0.00 in0.0 mm 0.00 in0.0 mm
07:10 AM 24.1°F-4.4°C 17.3°F-8.2°C 75% Calm Calm -- 30.39 in1029.1 mb 0.00 in0.0 mm 0.00 in0.0 mm 0.00 in0.0 mm
07:15 AM 24.1°F-4.4°C 17.7°F-7.9°C 76% Calm Calm -- 30.40 in1029.5 mb 0.00 in0.0 mm 0.00 in0.0 mm 0.00 in0.0 mm
07:20 AM 24.1°F-4.4°C 17.7°F-7.9°C 76% Calm Calm -- 30.40 in1029.5 mb 0.00 in0.0 mm 0.00 in0.0 mm 0.00 in0.0 mm
07:25 AM 24.1°F-4.4°C 17.7°F-7.9°C 76% Calm Calm -- 30.40 in1029.5 mb 0.00 in0.0 mm 0.00 in0.0 mm 0.00 in0.0 mm
07:30 AM 24.0°F-4.4°C 17.6°F-8.0°C 76% Calm Calm -- 30.40 in1029.5 mb 0.00 in0.0 mm 0.00 in0.0 mm 0.00 in0.0 mm
07:35 AM 24.0°F-4.4°C 17.6°F-8.0°C 76% Calm Calm -- 30.40 in1029.5 mb 0.00 in0.0 mm 0.00 in0.0 mm 0.00 in0.0 mm
07:40 AM 23.9°F-4.5°C 17.5°F-8.1°C 76% Calm Calm -- 30.41 in1029.8 mb 0.00 in0.0 mm 0.00 in0.0 mm 0.00 in0.0 mm
07:45 AM 23.9°F-4.5°C 17.5°F-8.1°C 76% Calm Calm -- 30.41 in1029.8 mb 0.00 in0.0 mm 0.00 in0.0 mm 0.00 in0.0 mm
07:50 AM 23.9°F-4.5°C 17.5°F-8.1°C 76% Calm Calm -- 30.41 in1029.8 mb 0.00 in0.0 mm 0.00 in0.0 mm 0.00 in0.0 mm
07:55 AM 23.9°F-4.5°C 17.5°F-8.1°C 76% Calm Calm -- 30.41 in1029.8 mb 0.00 in0.0 mm 0.00 in0.0 mm 0.00 in0.0 mm
08:00 AM 23.8°F-4.6°C 17.4°F-8.1°C 76% 3.0 mph N4.8 kmh N -- 30.40 in1029.5 mb 0.00 in0.0 mm 0.00 in0.0 mm 0.00 in0.0 mm
08:05 AM 23.9°F-4.5°C 17.5°F-8.1°C 76% Calm Calm -- 30.40 in1029.5 mb 0.00 in0.0 mm 0.00 in0.0 mm 0.00 in0.0 mm
08:10 AM 23.9°F-4.5°C 17.8°F-7.9°C 77% 3.0 mph N4.8 kmh N -- 30.41 in1029.8 mb 0.00 in0.0 mm 0.00 in0.0 mm 0.00 in0.0 mm
08:15 AM 23.9°F-4.5°C 17.8°F-7.9°C 77% 2.0 mph NE3.2 kmh NE -- 30.41 in1029.8 mb 0.00 in0.0 mm 0.00 in0.0 mm 0.00 in0.0 mm
08:20 AM 23.8°F-4.6°C 17.4°F-8.1°C 76% Calm Calm 8.0 mph12.9 kmh 30.42 in1030.1 mb 0.00 in0.0 mm 0.00 in0.0 mm 0.00 in0.0 mm
08:25 AM 23.8°F-4.6°C 17.7°F-7.9°C 77% Calm Calm 8.0 mph12.9 kmh 30.42 in1030.1 mb 0.00 in0.0 mm 0.00 in0.0 mm 0.00 in0.0 mm
08:30 AM 23.9°F-4.5°C 17.8°F-7.9°C 77% Calm Calm -- 30.42 in1030.1 mb 0.00 in0.0 mm 0.00 in0.0 mm 0.00 in0.0 mm
08:35 AM 23.9°F-4.5°C 17.8°F-7.9°C 77% Calm Calm -- 30.42 in1030.1 mb 0.00 in0.0 mm 0.00 in0.0 mm 0.00 in0.0 mm
08:40 AM 23.9°F-4.5°C 17.5°F-8.1°C 76% Calm Calm -- 30.42 in1030.1 mb 0.00 in0.0 mm 0.00 in0.0 mm 0.00 in0.0 mm
08:45 AM 24.0°F-4.4°C 17.6°F-8.0°C 76% Calm Calm -- 30.42 in1030.1 mb 0.00 in0.0 mm 0.00 in0.0 mm 0.00 in0.0 mm
08:50 AM 24.0°F-4.4°C 17.6°F-8.0°C 76% Calm Calm -- 30.43 in1030.5 mb 0.00 in0.0 mm 0.00 in0.0 mm 0.00 in0.0 mm
08:55 AM 24.1°F-4.4°C 17.7°F-7.9°C 76% Calm Calm -- 30.43 in1030.5 mb 0.00 in0.0 mm 0.00 in0.0 mm 0.00 in0.0 mm
09:00 AM 24.2°F-4.3°C 17.7°F-7.9°C 76% Calm Calm -- 30.44 in1030.8 mb 0.00 in0.0 mm 0.00 in0.0 mm 0.00 in0.0 mm
09:05 AM 24.3°F-4.3°C 17.8°F-7.9°C 76% Calm Calm -- 30.44 in1030.8 mb 0.00 in0.0 mm 0.00 in0.0 mm 0.00 in0.0 mm
09:10 AM 24.3°F-4.3°C 17.8°F-7.9°C 76% Calm Calm -- 30.45 in1031.2 mb 0.00 in0.0 mm 0.00 in0.0 mm 0.00 in0.0 mm
09:15 AM 24.3°F-4.3°C 17.8°F-7.9°C 76% Calm Calm -- 30.45 in1031.2 mb 0.00 in0.0 mm 0.00 in0.0 mm 0.00 in0.0 mm
09:20 AM 24.3°F-4.3°C 17.5°F-8.1°C 75% Calm Calm -- 30.45 in1031.2 mb 0.00 in0.0 mm 0.00 in0.0 mm 0.00 in0.0 mm
09:25 AM 24.4°F-4.2°C 17.6°F-8.0°C 75% Calm Calm -- 30.45 in1031.2 mb 0.00 in0.0 mm 0.00 in0.0 mm 0.00 in0.0 mm
09:30 AM 24.4°F-4.2°C 17.3°F-8.2°C 74% Calm Calm -- 30.46 in1031.5 mb 0.00 in0.0 mm 0.00 in0.0 mm 0.00 in0.0 mm
09:35 AM 24.4°F-4.2°C 16.7°F-8.5°C 72% Calm Calm -- 30.46 in1031.5 mb 0.00 in0.0 mm 0.00 in0.0 mm 0.00 in0.0 mm
09:40 AM 24.5°F-4.2°C 17.1°F-8.3°C 73% Calm Calm -- 30.46 in1031.5 mb 0.00 in0.0 mm 0.00 in0.0 mm 0.00 in0.0 mm
09:45 AM 24.5°F-4.2°C 17.1°F-8.3°C 73% Calm Calm -- 30.46 in1031.5 mb 0.00 in0.0 mm 0.00 in0.0 mm 0.00 in0.0 mm
09:50 AM 24.6°F-4.1°C 17.2°F-8.2°C 73% Calm Calm -- 30.46 in1031.5 mb 0.00 in0.0 mm 0.00 in0.0 mm 0.00 in0.0 mm
09:55 AM 24.5°F-4.2°C 17.1°F-8.3°C 73% Calm Calm -- 30.46 in1031.5 mb 0.00 in0.0 mm 0.00 in0.0 mm 0.00 in0.0 mm
10:00 AM 24.5°F-4.2°C 17.1°F-8.3°C 73% Calm Calm 1.0 mph1.6 kmh 30.46 in1031.5 mb 0.00 in0.0 mm 0.00 in0.0 mm 0.00 in0.0 mm
10:05 AM 24.5°F-4.2°C 17.1°F-8.3°C 73% Calm Calm 1.0 mph1.6 kmh 30.47 in1031.8 mb 0.00 in0.0 mm 0.00 in0.0 mm 0.00 in0.0 mm
10:10 AM 24.5°F-4.2°C 17.1°F-8.3°C 73% Calm Calm -- 30.47 in1031.8 mb 0.00 in0.0 mm 0.00 in0.0 mm 0.00 in0.0 mm
10:15 AM 24.5°F-4.2°C 17.4°F-8.1°C 74% Calm Calm -- 30.47 in1031.8 mb 0.00 in0.0 mm 0.00 in0.0 mm 0.00 in0.0 mm
10:20 AM 24.4°F-4.2°C 17.3°F-8.2°C 74% 3.0 mph NNW4.8 kmh NNW -- 30.48 in1032.2 mb 0.00 in0.0 mm 0.00 in0.0 mm 0.00 in0.0 mm
10:25 AM 24.5°F-4.2°C 17.7°F-7.9°C 75% 4.0 mph NW6.4 kmh NW -- 30.48 in1032.2 mb 0.00 in0.0 mm 0.00 in0.0 mm 0.00 in0.0 mm
10:30 AM 24.5°F-4.2°C 17.7°F-7.9°C 75% 4.0 mph NW6.4 kmh NW -- 30.49 in1032.5 mb 0.00 in0.0 mm 0.00 in0.0 mm 0.00 in0.0 mm
10:35 AM 24.4°F-4.2°C 18.2°F-7.7°C 77% 3.0 mph WNW4.8 kmh WNW -- 30.49 in1032.5 mb 0.00 in0.0 mm 0.00 in0.0 mm 0.00 in0.0 mm
10:40 AM 23.6°F-4.7°C 18.1°F-7.7°C 79% 2.0 mph NW3.2 kmh NW -- 30.50 in1032.8 mb 0.00 in0.0 mm 0.00 in0.0 mm 0.00 in0.0 mm
10:45 AM 23.4°F-4.8°C 18.7°F-7.4°C 82% 2.0 mph W3.2 kmh W -- 30.50 in1032.8 mb 0.00 in0.0 mm 0.00 in0.0 mm 0.00 in0.0 mm
10:50 AM 23.2°F-4.9°C 18.8°F-7.3°C 83% 1.0 mph NW1.6 kmh NW 7.0 mph11.3 kmh 30.51 in1033.2 mb 0.00 in0.0 mm 0.00 in0.0 mm 0.00 in0.0 mm
10:55 AM 23.2°F-4.9°C 19.1°F-7.2°C 84% 2.0 mph W3.2 kmh W 7.0 mph11.3 kmh 30.51 in1033.2 mb 0.00 in0.0 mm 0.00 in0.0 mm 0.00 in0.0 mm
11:00 AM 23.1°F-4.9°C 19.0°F-7.2°C 84% 4.0 mph W6.4 kmh W -- 30.51 in1033.2 mb 0.00 in0.0 mm 0.00 in0.0 mm 0.00 in0.0 mm
11:05 AM 23.3°F-4.8°C 19.7°F-6.8°C 86% 5.0 mph NW8.0 kmh NW -- 30.52 in1033.5 mb 0.00 in0.0 mm 0.00 in0.0 mm 0.00 in0.0 mm
11:10 AM 23.2°F-4.9°C 19.6°F-6.9°C 86% 4.0 mph WNW6.4 kmh WNW -- 30.52 in1033.5 mb 0.00 in0.0 mm 0.00 in0.0 mm 0.00 in0.0 mm
11:15 AM 23.1°F-4.9°C 19.5°F-6.9°C 86% 2.0 mph WNW3.2 kmh WNW -- 30.52 in1033.5 mb 0.00 in0.0 mm 0.00 in0.0 mm 0.00 in0.0 mm
11:20 AM 23.1°F-4.9°C 19.5°F-6.9°C 86% 4.0 mph NW6.4 kmh NW -- 30.51 in1033.2 mb 0.00 in0.0 mm 0.00 in0.0 mm 0.00 in0.0 mm
11:25 AM 23.1°F-4.9°C 19.5°F-6.9°C 86% 2.0 mph N3.2 kmh N -- 30.51 in1033.2 mb 0.00 in0.0 mm 0.00 in0.0 mm 0.00 in0.0 mm
11:30 AM 23.0°F-5.0°C 19.4°F-7.0°C 86% 4.0 mph NW6.4 kmh NW -- 30.51 in1033.2 mb 0.00 in0.0 mm 0.00 in0.0 mm 0.00 in0.0 mm
11:35 AM 23.0°F-5.0°C 19.7°F-6.8°C 87% 7.0 mph NW11.3 kmh NW -- 30.51 in1033.2 mb 0.00 in0.0 mm 0.00 in0.0 mm 0.00 in0.0 mm
11:40 AM 23.1°F-4.9°C 19.8°F-6.8°C 87% 1.0 mph NW1.6 kmh NW 7.0 mph11.3 kmh 30.51 in1033.2 mb 0.00 in0.0 mm 0.00 in0.0 mm 0.00 in0.0 mm
11:45 AM 23.3°F-4.8°C 20.0°F-6.7°C 87% 3.0 mph N4.8 kmh N 7.0 mph11.3 kmh 30.51 in1033.2 mb 0.00 in0.0 mm 0.00 in0.0 mm 0.00 in0.0 mm
11:50 AM 23.3°F-4.8°C 20.0°F-6.7°C 87% 3.0 mph NW4.8 kmh NW -- 30.51 in1033.2 mb 0.00 in0.0 mm 0.00 in0.0 mm 0.00 in0.0 mm
11:55 AM 23.3°F-4.8°C 20.0°F-6.7°C 87% 4.0 mph NNW6.4 kmh NNW -- 30.50 in1032.8 mb 0.00 in0.0 mm 0.00 in0.0 mm 0.00 in0.0 mm
12:00 PM 23.6°F-4.7°C 20.3°F-6.5°C 87% 4.0 mph NNW6.4 kmh NNW -- 30.50 in1032.8 mb 0.00 in0.0 mm 0.00 in0.0 mm 0.00 in0.0 mm
12:05 PM 23.6°F-4.7°C 20.3°F-6.5°C 87% 5.0 mph NNW8.0 kmh NNW -- 30.50 in1032.8 mb 0.00 in0.0 mm 0.00 in0.0 mm 0.00 in0.0 mm
12:10 PM 23.6°F-4.7°C 20.0°F-6.7°C 86% 8.0 mph NNW12.9 kmh NNW -- 30.50 in1032.8 mb 0.00 in0.0 mm 0.00 in0.0 mm 0.00 in0.0 mm
12:15 PM 23.6°F-4.7°C 20.0°F-6.7°C 86% 6.0 mph NNW9.7 kmh NNW -- 30.49 in1032.5 mb 0.00 in0.0 mm 0.00 in0.0 mm 0.00 in0.0 mm
12:20 PM 23.7°F-4.6°C 20.1°F-6.6°C 86% 4.0 mph NW6.4 kmh NW -- 30.49 in1032.5 mb 0.00 in0.0 mm 0.00 in0.0 mm 0.00 in0.0 mm
12:25 PM 23.5°F-4.7°C 19.7°F-6.8°C 85% 7.0 mph N11.3 kmh N -- 30.49 in1032.5 mb 0.00 in0.0 mm 0.00 in0.0 mm 0.00 in0.0 mm
12:30 PM 23.6°F-4.7°C 19.8°F-6.8°C 85% 10.0 mph NW16.1 kmh NW 9.0 mph14.5 kmh 30.48 in1032.2 mb 0.00 in0.0 mm 0.00 in0.0 mm 0.00 in0.0 mm
12:35 PM 23.7°F-4.6°C 19.9°F-6.7°C 85% 7.0 mph NNW11.3 kmh NNW 9.0 mph14.5 kmh 30.48 in1032.2 mb 0.00 in0.0 mm 0.00 in0.0 mm 0.00 in0.0 mm
12:40 PM 23.8°F-4.6°C 19.7°F-6.8°C 84% 5.0 mph NNW8.0 kmh NNW -- 30.48 in1032.2 mb 0.00 in0.0 mm 0.00 in0.0 mm 0.00 in0.0 mm
12:45 PM 24.0°F-4.4°C 19.9°F-6.7°C 84% 6.0 mph N9.7 kmh N -- 30.48 in1032.2 mb 0.00 in0.0 mm 0.00 in0.0 mm 0.00 in0.0 mm
12:50 PM 24.0°F-4.4°C 19.9°F-6.7°C 84% 3.0 mph N4.8 kmh N -- 30.48 in1032.2 mb 0.00 in0.0 mm 0.00 in0.0 mm 0.00 in0.0 mm
12:55 PM 24.1°F-4.4°C 20.0°F-6.7°C 84% 6.0 mph NE9.7 kmh NE -- 30.47 in1031.8 mb 0.00 in0.0 mm 0.00 in0.0 mm 0.00 in0.0 mm
01:00 PM 24.2°F-4.3°C 20.1°F-6.6°C 84% 5.0 mph NNE8.0 kmh NNE -- 30.47 in1031.8 mb 0.00 in0.0 mm 0.00 in0.0 mm 0.00 in0.0 mm
01:05 PM 24.3°F-4.3°C 19.9°F-6.7°C 83% 3.0 mph NE4.8 kmh NE -- 30.47 in1031.8 mb 0.00 in0.0 mm 0.00 in0.0 mm 0.00 in0.0 mm
01:10 PM 24.2°F-4.3°C 19.8°F-6.8°C 83% 1.0 mph NNE1.6 kmh NNE -- 30.47 in1031.8 mb 0.00 in0.0 mm 0.00 in0.0 mm 0.00 in0.0 mm
01:15 PM 24.4°F-4.2°C 20.0°F-6.7°C 83% 5.0 mph NW8.0 kmh NW -- 30.47 in1031.8 mb 0.00 in0.0 mm 0.00 in0.0 mm 0.00 in0.0 mm
01:20 PM 24.5°F-4.2°C 20.1°F-6.6°C 83% 3.0 mph N4.8 kmh N 7.0 mph11.3 kmh 30.47 in1031.8 mb 0.00 in0.0 mm 0.00 in0.0 mm 0.00 in0.0 mm
01:25 PM 24.6°F-4.1°C 20.2°F-6.6°C 83% Calm Calm 7.0 mph11.3 kmh 30.47 in1031.8 mb 0.00 in0.0 mm 0.00 in0.0 mm 0.00 in0.0 mm
01:30 PM 24.6°F-4.1°C 19.9°F-6.7°C 82% Calm Calm -- 30.48 in1032.2 mb 0.00 in0.0 mm 0.00 in0.0 mm 0.00 in0.0 mm
01:35 PM 24.8°F-4.0°C 20.1°F-6.6°C 82% 3.0 mph N4.8 kmh N -- 30.47 in1031.8 mb 0.00 in0.0 mm 0.00 in0.0 mm 0.00 in0.0 mm
01:40 PM 24.6°F-4.1°C 19.6°F-6.9°C 81% 7.0 mph N11.3 kmh N -- 30.47 in1031.8 mb 0.00 in0.0 mm 0.00 in0.0 mm 0.00 in0.0 mm
01:45 PM 24.6°F-4.1°C 19.9°F-6.7°C 82% 5.0 mph N8.0 kmh N -- 30.47 in1031.8 mb 0.00 in0.0 mm 0.00 in0.0 mm 0.00 in0.0 mm
01:50 PM 24.5°F-4.2°C 19.8°F-6.8°C 82% Calm Calm -- 30.47 in1031.8 mb 0.00 in0.0 mm 0.00 in0.0 mm 0.00 in0.0 mm
01:55 PM 24.7°F-4.1°C 20.0°F-6.7°C 82% 1.0 mph NNE1.6 kmh NNE -- 30.47 in1031.8 mb 0.00 in0.0 mm 0.00 in0.0 mm 0.00 in0.0 mm
02:00 PM 24.7°F-4.1°C 19.7°F-6.8°C 81% Calm Calm -- 30.47 in1031.8 mb 0.00 in0.0 mm 0.00 in0.0 mm 0.00 in0.0 mm
02:05 PM 24.9°F-3.9°C 20.2°F-6.6°C 82% 1.0 mph NNW1.6 kmh NNW -- 30.47 in1031.8 mb 0.00 in0.0 mm 0.00 in0.0 mm 0.00 in0.0 mm
02:10 PM 25.0°F-3.9°C 20.3°F-6.5°C 82% 1.0 mph N1.6 kmh N 8.0 mph12.9 kmh 30.47 in1031.8 mb 0.00 in0.0 mm 0.00 in0.0 mm 0.00 in0.0 mm
02:15 PM 25.1°F-3.8°C 20.1°F-6.6°C 81% 2.0 mph N3.2 kmh N 8.0 mph12.9 kmh 30.47 in1031.8 mb 0.00 in0.0 mm 0.00 in0.0 mm 0.00 in0.0 mm
02:20 PM 25.1°F-3.8°C 20.1°F-6.6°C 81% Calm Calm -- 30.47 in1031.8 mb 0.00 in0.0 mm 0.00 in0.0 mm 0.00 in0.0 mm
02:25 PM 25.4°F-3.7°C 20.7°F-6.3°C 82% 7.0 mph N11.3 kmh N -- 30.47 in1031.8 mb 0.00 in0.0 mm 0.00 in0.0 mm 0.00 in0.0 mm
02:30 PM 25.3°F-3.7°C 20.3°F-6.5°C 81% 2.0 mph NW3.2 kmh NW -- 30.47 in1031.8 mb 0.00 in0.0 mm 0.00 in0.0 mm 0.00 in0.0 mm
02:35 PM 25.3°F-3.7°C 20.3°F-6.5°C 81% Calm Calm -- 30.47 in1031.8 mb 0.00 in0.0 mm 0.00 in0.0 mm 0.00 in0.0 mm
02:40 PM 25.3°F-3.7°C 20.3°F-6.5°C 81% 2.0 mph NW3.2 kmh NW -- 30.47 in1031.8 mb 0.00 in0.0 mm 0.00 in0.0 mm 0.00 in0.0 mm
02:45 PM 25.3°F-3.7°C 20.3°F-6.5°C 81% 5.0 mph NNE8.0 kmh NNE -- 30.47 in1031.8 mb 0.00 in0.0 mm 0.00 in0.0 mm 0.00 in0.0 mm
02:50 PM 25.3°F-3.7°C 20.3°F-6.5°C 81% 4.0 mph N6.4 kmh N -- 30.48 in1032.2 mb 0.00 in0.0 mm 0.00 in0.0 mm 0.00 in0.0 mm
02:55 PM 25.4°F-3.7°C 20.4°F-6.4°C 81% Calm Calm -- 30.47 in1031.8 mb 0.00 in0.0 mm 0.00 in0.0 mm 0.00 in0.0 mm
03:00 PM 25.3°F-3.7°C 20.3°F-6.5°C 81% 4.0 mph NNW6.4 kmh NNW 6.0 mph9.7 kmh 30.48 in1032.2 mb 0.00 in0.0 mm 0.00 in0.0 mm 0.00 in0.0 mm
03:05 PM 25.4°F-3.7°C 20.4°F-6.4°C 81% 2.0 mph N3.2 kmh N 6.0 mph9.7 kmh 30.48 in1032.2 mb 0.00 in0.0 mm 0.00 in0.0 mm 0.00 in0.0 mm
03:10 PM 25.4°F-3.7°C 20.4°F-6.4°C 81% Calm Calm -- 30.48 in1032.2 mb 0.00 in0.0 mm 0.00 in0.0 mm 0.00 in0.0 mm
03:15 PM 25.4°F-3.7°C 20.7°F-6.3°C 82% 4.0 mph N6.4 kmh N -- 30.47 in1031.8 mb 0.00 in0.0 mm 0.00 in0.0 mm 0.00 in0.0 mm
03:20 PM 25.6°F-3.6°C 20.9°F-6.2°C 82% Calm Calm -- 30.47 in1031.8 mb 0.00 in0.0 mm 0.00 in0.0 mm 0.00 in0.0 mm
03:25 PM 25.7°F-3.5°C 21.0°F-6.1°C 82% 2.0 mph N3.2 kmh N -- 30.47 in1031.8 mb 0.00 in0.0 mm 0.00 in0.0 mm 0.00 in0.0 mm
03:30 PM 25.7°F-3.5°C 21.0°F-6.1°C 82% 2.0 mph N3.2 kmh N -- 30.47 in1031.8 mb 0.00 in0.0 mm 0.00 in0.0 mm 0.00 in0.0 mm
03:35 PM 25.7°F-3.5°C 21.0°F-6.1°C 82% 4.0 mph N6.4 kmh N -- 30.47 in1031.8 mb 0.00 in0.0 mm 0.00 in0.0 mm 0.00 in0.0 mm
03:40 PM 25.8°F-3.4°C 21.1°F-6.1°C 82% 1.0 mph N1.6 kmh N -- 30.48 in1032.2 mb 0.00 in0.0 mm 0.00 in0.0 mm 0.00 in0.0 mm
03:45 PM 25.8°F-3.4°C 21.1°F-6.1°C 82% Calm Calm -- 30.48 in1032.2 mb 0.00 in0.0 mm 0.00 in0.0 mm 0.00 in0.0 mm
03:50 PM 25.7°F-3.5°C 21.0°F-6.1°C 82% Calm Calm 6.0 mph9.7 kmh 30.48 in1032.2 mb 0.00 in0.0 mm 0.00 in0.0 mm 0.00 in0.0 mm
03:55 PM 25.7°F-3.5°C 21.0°F-6.1°C 82% Calm Calm 6.0 mph9.7 kmh 30.48 in1032.2 mb 0.00 in0.0 mm 0.00 in0.0 mm 0.00 in0.0 mm
04:00 PM 25.6°F-3.6°C 20.9°F-6.2°C 82% 2.0 mph N3.2 kmh N -- 30.48 in1032.2 mb 0.00 in0.0 mm 0.00 in0.0 mm 0.00 in0.0 mm
04:05 PM 25.6°F-3.6°C 20.9°F-6.2°C 82% 5.0 mph N8.0 kmh N -- 30.49 in1032.5 mb 0.00 in0.0 mm 0.00 in0.0 mm 0.00 in0.0 mm
04:10 PM 25.5°F-3.6°C 20.8°F-6.2°C 82% 4.0 mph N6.4 kmh N -- 30.49 in1032.5 mb 0.00 in0.0 mm 0.00 in0.0 mm 0.00 in0.0 mm
04:15 PM 25.5°F-3.6°C 21.1°F-6.1°C 83% 3.0 mph NNE4.8 kmh NNE -- 30.48 in1032.2 mb 0.00 in0.0 mm 0.00 in0.0 mm 0.00 in0.0 mm
04:20 PM 25.5°F-3.6°C 21.1°F-6.1°C 83% 5.0 mph N8.0 kmh N -- 30.48 in1032.2 mb 0.00 in0.0 mm 0.00 in0.0 mm 0.00 in0.0 mm
04:25 PM 25.4°F-3.7°C 21.0°F-6.1°C 83% Calm Calm -- 30.49 in1032.5 mb 0.00 in0.0 mm 0.00 in0.0 mm 0.00 in0.0 mm
04:30 PM 25.5°F-3.6°C 21.1°F-6.1°C 83% 4.0 mph NNW6.4 kmh NNW -- 30.48 in1032.2 mb 0.00 in0.0 mm 0.00 in0.0 mm 0.00 in0.0 mm
04:35 PM 25.5°F-3.6°C 21.1°F-6.1°C 83% Calm Calm -- 30.48 in1032.2 mb 0.00 in0.0 mm 0.00 in0.0 mm 0.00 in0.0 mm
04:40 PM 25.6°F-3.6°C 21.2°F-6.0°C 83% Calm Calm 4.0 mph6.4 kmh 30.49 in1032.5 mb 0.00 in0.0 mm 0.00 in0.0 mm 0.00 in0.0 mm
04:45 PM 25.5°F-3.6°C 21.1°F-6.1°C 83% 1.0 mph NNW1.6 kmh NNW 4.0 mph6.4 kmh 30.48 in1032.2 mb 0.00 in0.0 mm 0.00 in0.0 mm 0.00 in0.0 mm
04:50 PM 25.5°F-3.6°C 21.1°F-6.1°C 83% Calm Calm -- 30.49 in1032.5 mb 0.00 in0.0 mm 0.00 in0.0 mm 0.00 in0.0 mm
04:55 PM 25.5°F-3.6°C 21.1°F-6.1°C 83% 3.0 mph N4.8 kmh N -- 30.49 in1032.5 mb 0.00 in0.0 mm 0.00 in0.0 mm 0.00 in0.0 mm
05:00 PM 25.5°F-3.6°C 21.4°F-5.9°C 84% 4.0 mph N6.4 kmh N -- 30.49 in1032.5 mb 0.00 in0.0 mm 0.00 in0.0 mm 0.00 in0.0 mm
05:05 PM 25.5°F-3.6°C 21.4°F-5.9°C 84% 5.0 mph N8.0 kmh N -- 30.49 in1032.5 mb 0.00 in0.0 mm 0.00 in0.0 mm 0.00 in0.0 mm
05:10 PM 25.5°F-3.6°C 21.4°F-5.9°C 84% 2.0 mph N3.2 kmh N -- 30.49 in1032.5 mb 0.00 in0.0 mm 0.00 in0.0 mm 0.00 in0.0 mm
05:15 PM 25.4°F-3.7°C 21.3°F-5.9°C 84% 7.0 mph N11.3 kmh N -- 30.50 in1032.8 mb 0.00 in0.0 mm 0.00 in0.0 mm 0.00 in0.0 mm
05:20 PM 25.3°F-3.7°C 21.2°F-6.0°C 84% 5.0 mph NNW8.0 kmh NNW -- 30.50 in1032.8 mb 0.00 in0.0 mm 0.00 in0.0 mm 0.00 in0.0 mm
05:25 PM 25.3°F-3.7°C 21.2°F-6.0°C 84% 3.0 mph N4.8 kmh N -- 30.50 in1032.8 mb 0.00 in0.0 mm 0.00 in0.0 mm 0.00 in0.0 mm
05:30 PM 25.3°F-3.7°C 21.2°F-6.0°C 84% 4.0 mph N6.4 kmh N 7.0 mph11.3 kmh 30.50 in1032.8 mb 0.00 in0.0 mm 0.00 in0.0 mm 0.00 in0.0 mm
05:35 PM 25.3°F-3.7°C 21.4°F-5.9°C 85% 4.0 mph NNW6.4 kmh NNW 7.0 mph11.3 kmh 30.50 in1032.8 mb 0.00 in0.0 mm 0.00 in0.0 mm 0.00 in0.0 mm
05:40 PM 25.2°F-3.8°C 21.3°F-5.9°C 85% 6.0 mph N9.7 kmh N -- 30.50 in1032.8 mb 0.00 in0.0 mm 0.00 in0.0 mm 0.00 in0.0 mm
05:45 PM 25.2°F-3.8°C 21.3°F-5.9°C 85% 4.0 mph N6.4 kmh N -- 30.50 in1032.8 mb 0.00 in0.0 mm 0.00 in0.0 mm 0.00 in0.0 mm
05:50 PM 25.2°F-3.8°C 21.6°F-5.8°C 86% 3.0 mph NNW4.8 kmh NNW -- 30.50 in1032.8 mb 0.00 in0.0 mm 0.00 in0.0 mm 0.00 in0.0 mm
05:55 PM 25.1°F-3.8°C 21.5°F-5.8°C 86% 4.0 mph NW6.4 kmh NW -- 30.51 in1033.2 mb 0.00 in0.0 mm 0.00 in0.0 mm 0.00 in0.0 mm
06:00 PM 25.1°F-3.8°C 21.5°F-5.8°C 86% 3.0 mph NW4.8 kmh NW -- 30.51 in1033.2 mb 0.00 in0.0 mm 0.00 in0.0 mm 0.00 in0.0 mm
06:05 PM 25.0°F-3.9°C 21.4°F-5.9°C 86% 4.0 mph N6.4 kmh N -- 30.51 in1033.2 mb 0.00 in0.0 mm 0.00 in0.0 mm 0.00 in0.0 mm
06:10 PM 25.0°F-3.9°C 21.4°F-5.9°C 86% 4.0 mph N6.4 kmh N -- 30.51 in1033.2 mb 0.00 in0.0 mm 0.00 in0.0 mm 0.00 in0.0 mm
06:15 PM 25.0°F-3.9°C 21.7°F-5.7°C 87% 4.0 mph N6.4 kmh N -- 30.51 in1033.2 mb 0.00 in0.0 mm 0.00 in0.0 mm 0.00 in0.0 mm
06:20 PM 24.9°F-3.9°C 21.6°F-5.8°C 87% 1.0 mph N1.6 kmh N 7.0 mph11.3 kmh 30.51 in1033.2 mb 0.00 in0.0 mm 0.00 in0.0 mm 0.00 in0.0 mm
06:25 PM 24.9°F-3.9°C 21.6°F-5.8°C 87% 3.0 mph N4.8 kmh N 7.0 mph11.3 kmh 30.51 in1033.2 mb 0.00 in0.0 mm 0.00 in0.0 mm 0.00 in0.0 mm
06:30 PM 24.8°F-4.0°C 21.5°F-5.8°C 87% 3.0 mph N4.8 kmh N -- 30.52 in1033.5 mb 0.00 in0.0 mm 0.00 in0.0 mm 0.00 in0.0 mm
06:35 PM 24.8°F-4.0°C 21.5°F-5.8°C 87% 4.0 mph N6.4 kmh N -- 30.52 in1033.5 mb 0.00 in0.0 mm 0.00 in0.0 mm 0.00 in0.0 mm
06:40 PM 24.8°F-4.0°C 21.5°F-5.8°C 87% 1.0 mph NW1.6 kmh NW -- 30.52 in1033.5 mb 0.00 in0.0 mm 0.00 in0.0 mm 0.00 in0.0 mm
06:45 PM 24.8°F-4.0°C 21.5°F-5.8°C 87% 4.0 mph NNW6.4 kmh NNW -- 30.52 in1033.5 mb 0.00 in0.0 mm 0.00 in0.0 mm 0.00 in0.0 mm
06:50 PM 24.8°F-4.0°C 21.5°F-5.8°C 87% 3.0 mph NNW4.8 kmh NNW -- 30.52 in1033.5 mb 0.00 in0.0 mm 0.00 in0.0 mm 0.00 in0.0 mm
06:55 PM 24.7°F-4.1°C 21.4°F-5.9°C 87% 1.0 mph N1.6 kmh N -- 30.52 in1033.5 mb 0.00 in0.0 mm 0.00 in0.0 mm 0.00 in0.0 mm
07:00 PM 24.7°F-4.1°C 21.4°F-5.9°C 87% 3.0 mph NW4.8 kmh NW -- 30.52 in1033.5 mb 0.00 in0.0 mm 0.00 in0.0 mm 0.00 in0.0 mm
07:05 PM 24.7°F-4.1°C 21.4°F-5.9°C 87% 5.0 mph NNW8.0 kmh NNW -- 30.52 in1033.5 mb 0.00 in0.0 mm 0.00 in0.0 mm 0.00 in0.0 mm
07:10 PM 24.7°F-4.1°C 21.4°F-5.9°C 87% 6.0 mph NNE9.7 kmh NNE 8.0 mph12.9 kmh 30.52 in1033.5 mb 0.00 in0.0 mm 0.00 in0.0 mm 0.00 in0.0 mm
07:15 PM 24.6°F-4.1°C 21.3°F-5.9°C 87% 3.0 mph N4.8 kmh N 8.0 mph12.9 kmh 30.53 in1033.9 mb 0.00 in0.0 mm 0.00 in0.0 mm 0.00 in0.0 mm
07:20 PM 24.6°F-4.1°C 21.0°F-6.1°C 86% Calm Calm -- 30.53 in1033.9 mb 0.00 in0.0 mm 0.00 in0.0 mm 0.00 in0.0 mm
07:25 PM 24.7°F-4.1°C 21.1°F-6.1°C 86% 3.0 mph N4.8 kmh N -- 30.53 in1033.9 mb 0.00 in0.0 mm 0.00 in0.0 mm 0.00 in0.0 mm
07:30 PM 24.6°F-4.1°C 21.0°F-6.1°C 86% 2.0 mph N3.2 kmh N -- 30.53 in1033.9 mb 0.00 in0.0 mm 0.00 in0.0 mm 0.00 in0.0 mm
07:35 PM 24.6°F-4.1°C 21.0°F-6.1°C 86% 2.0 mph N3.2 kmh N -- 30.53 in1033.9 mb 0.00 in0.0 mm 0.00 in0.0 mm 0.00 in0.0 mm
07:40 PM 24.6°F-4.1°C 21.0°F-6.1°C 86% Calm Calm -- 30.53 in1033.9 mb 0.00 in0.0 mm 0.00 in0.0 mm 0.00 in0.0 mm
07:45 PM 24.6°F-4.1°C 21.0°F-6.1°C 86% Calm Calm -- 30.53 in1033.9 mb 0.00 in0.0 mm 0.00 in0.0 mm 0.00 in0.0 mm
07:50 PM 24.6°F-4.1°C 21.0°F-6.1°C 86% 3.0 mph N4.8 kmh N -- 30.53 in1033.9 mb 0.00 in0.0 mm 0.00 in0.0 mm 0.00 in0.0 mm
07:55 PM 24.6°F-4.1°C 21.0°F-6.1°C 86% 3.0 mph N4.8 kmh N -- 30.53 in1033.9 mb 0.00 in0.0 mm 0.00 in0.0 mm 0.00 in0.0 mm
08:00 PM 24.6°F-4.1°C 21.0°F-6.1°C 86% 2.0 mph NW3.2 kmh NW 5.0 mph8.0 kmh 30.53 in1033.9 mb 0.00 in0.0 mm 0.00 in0.0 mm 0.00 in0.0 mm
08:05 PM 24.6°F-4.1°C 21.0°F-6.1°C 86% 3.0 mph NW4.8 kmh NW 5.0 mph8.0 kmh 30.53 in1033.9 mb 0.00 in0.0 mm 0.00 in0.0 mm 0.00 in0.0 mm
08:10 PM 24.6°F-4.1°C 21.0°F-6.1°C 86% 2.0 mph NW3.2 kmh NW -- 30.53 in1033.9 mb 0.00 in0.0 mm 0.00 in0.0 mm 0.00 in0.0 mm
08:15 PM 24.6°F-4.1°C 21.0°F-6.1°C 86% 2.0 mph NNW3.2 kmh NNW -- 30.53 in1033.9 mb 0.00 in0.0 mm 0.00 in0.0 mm 0.00 in0.0 mm
08:20 PM 24.6°F-4.1°C 21.0°F-6.1°C 86% Calm Calm -- 30.53 in1033.9 mb 0.00 in0.0 mm 0.00 in0.0 mm 0.00 in0.0 mm
08:25 PM 24.6°F-4.1°C 21.0°F-6.1°C 86% Calm Calm -- 30.54 in1034.2 mb 0.00 in0.0 mm 0.00 in0.0 mm 0.00 in0.0 mm
08:30 PM 24.6°F-4.1°C 21.0°F-6.1°C 86% Calm Calm -- 30.53 in1033.9 mb 0.00 in0.0 mm 0.00 in0.0 mm 0.00 in0.0 mm
08:35 PM 24.6°F-4.1°C 21.0°F-6.1°C 86% Calm Calm -- 30.54 in1034.2 mb 0.00 in0.0 mm 0.00 in0.0 mm 0.00 in0.0 mm
08:40 PM 24.6°F-4.1°C 21.3°F-5.9°C 87% Calm Calm -- 30.54 in1034.2 mb 0.00 in0.0 mm 0.00 in0.0 mm 0.00 in0.0 mm
08:45 PM 24.6°F-4.1°C 21.3°F-5.9°C 87% Calm Calm -- 30.54 in1034.2 mb 0.00 in0.0 mm 0.00 in0.0 mm 0.00 in0.0 mm
08:50 PM 24.5°F-4.2°C 20.9°F-6.2°C 86% 2.0 mph NE3.2 kmh NE 8.0 mph12.9 kmh 30.54 in1034.2 mb 0.00 in0.0 mm 0.00 in0.0 mm 0.00 in0.0 mm
08:55 PM 24.5°F-4.2°C 20.9°F-6.2°C 86% 4.0 mph NE6.4 kmh NE 8.0 mph12.9 kmh 30.54 in1034.2 mb 0.00 in0.0 mm 0.00 in0.0 mm 0.00 in0.0 mm
09:00 PM 24.5°F-4.2°C 20.9°F-6.2°C 86% 3.0 mph NNW4.8 kmh NNW -- 30.55 in1034.5 mb 0.00 in0.0 mm 0.00 in0.0 mm 0.00 in0.0 mm
09:05 PM 24.4°F-4.2°C 20.8°F-6.2°C 86% 4.0 mph NNE6.4 kmh NNE -- 30.55 in1034.5 mb 0.00 in0.0 mm 0.00 in0.0 mm 0.00 in0.0 mm
09:10 PM 24.3°F-4.3°C 20.7°F-6.3°C 86% 5.0 mph NE8.0 kmh NE -- 30.55 in1034.5 mb 0.00 in0.0 mm 0.00 in0.0 mm 0.00 in0.0 mm
09:15 PM 24.3°F-4.3°C 20.5°F-6.4°C 85% 3.0 mph E4.8 kmh E -- 30.55 in1034.5 mb 0.00 in0.0 mm 0.00 in0.0 mm 0.00 in0.0 mm
09:20 PM 24.1°F-4.4°C 20.0°F-6.7°C 84% 3.0 mph E4.8 kmh E -- 30.55 in1034.5 mb 0.00 in0.0 mm 0.00 in0.0 mm 0.00 in0.0 mm
09:25 PM 23.8°F-4.6°C 19.4°F-7.0°C 83% 4.0 mph NE6.4 kmh NE -- 30.55 in1034.5 mb 0.00 in0.0 mm 0.00 in0.0 mm 0.00 in0.0 mm
09:30 PM 23.7°F-4.6°C 19.0°F-7.2°C 82% 1.0 mph NE1.6 kmh NE -- 30.55 in1034.5 mb 0.00 in0.0 mm 0.00 in0.0 mm 0.00 in0.0 mm
09:35 PM 23.6°F-4.7°C 18.9°F-7.3°C 82% 2.0 mph NE3.2 kmh NE -- 30.55 in1034.5 mb 0.00 in0.0 mm 0.00 in0.0 mm 0.00 in0.0 mm
09:40 PM 23.6°F-4.7°C 18.9°F-7.3°C 82% Calm Calm 3.0 mph4.8 kmh 30.55 in1034.5 mb 0.00 in0.0 mm 0.00 in0.0 mm 0.00 in0.0 mm
09:45 PM 23.6°F-4.7°C 18.9°F-7.3°C 82% Calm Calm 3.0 mph4.8 kmh 30.56 in1034.9 mb 0.00 in0.0 mm 0.00 in0.0 mm 0.00 in0.0 mm
09:50 PM 23.6°F-4.7°C 18.9°F-7.3°C 82% 4.0 mph NE6.4 kmh NE -- 30.56 in1034.9 mb 0.00 in0.0 mm 0.00 in0.0 mm 0.00 in0.0 mm
09:55 PM 23.6°F-4.7°C 18.9°F-7.3°C 82% Calm Calm -- 30.56 in1034.9 mb 0.00 in0.0 mm 0.00 in0.0 mm 0.00 in0.0 mm
10:00 PM 23.5°F-4.7°C 18.5°F-7.5°C 81% 4.0 mph NNE6.4 kmh NNE -- 30.56 in1034.9 mb 0.00 in0.0 mm 0.00 in0.0 mm 0.00 in0.0 mm
10:05 PM 23.5°F-4.7°C 18.5°F-7.5°C 81% 3.0 mph NE4.8 kmh NE -- 30.56 in1034.9 mb 0.00 in0.0 mm 0.00 in0.0 mm 0.00 in0.0 mm
10:10 PM 23.4°F-4.8°C 18.4°F-7.6°C 81% 5.0 mph NE8.0 kmh NE -- 30.56 in1034.9 mb 0.00 in0.0 mm 0.00 in0.0 mm 0.00 in0.0 mm
10:15 PM 23.4°F-4.8°C 18.4°F-7.6°C 81% Calm Calm -- 30.56 in1034.9 mb 0.00 in0.0 mm 0.00 in0.0 mm 0.00 in0.0 mm
10:20 PM 23.3°F-4.8°C 18.3°F-7.6°C 81% Calm Calm -- 30.56 in1034.9 mb 0.00 in0.0 mm 0.00 in0.0 mm 0.00 in0.0 mm
10:25 PM 23.3°F-4.8°C 18.6°F-7.4°C 82% Calm Calm -- 30.56 in1034.9 mb 0.00 in0.0 mm 0.00 in0.0 mm 0.00 in0.0 mm
10:30 PM 23.3°F-4.8°C 18.6°F-7.4°C 82% 3.0 mph NNE4.8 kmh NNE 8.0 mph12.9 kmh 30.56 in1034.9 mb 0.00 in0.0 mm 0.00 in0.0 mm 0.00 in0.0 mm
10:35 PM 23.3°F-4.8°C 18.6°F-7.4°C 82% 4.0 mph NNE6.4 kmh NNE 8.0 mph12.9 kmh 30.56 in1034.9 mb 0.00 in0.0 mm 0.00 in0.0 mm 0.00 in0.0 mm
10:40 PM 23.3°F-4.8°C 18.6°F-7.4°C 82% 4.0 mph NNE6.4 kmh NNE -- 30.56 in1034.9 mb 0.00 in0.0 mm 0.00 in0.0 mm 0.00 in0.0 mm
10:45 PM 23.3°F-4.8°C 18.6°F-7.4°C 82% 5.0 mph NE8.0 kmh NE -- 30.56 in1034.9 mb 0.00 in0.0 mm 0.00 in0.0 mm 0.00 in0.0 mm
10:50 PM 23.2°F-4.9°C 18.5°F-7.5°C 82% 3.0 mph N4.8 kmh N -- 30.57 in1035.2 mb 0.00 in0.0 mm 0.00 in0.0 mm 0.00 in0.0 mm
10:55 PM 23.2°F-4.9°C 18.5°F-7.5°C 82% 5.0 mph N8.0 kmh N -- 30.56 in1034.9 mb 0.00 in0.0 mm 0.00 in0.0 mm 0.00 in0.0 mm
11:00 PM 23.2°F-4.9°C 18.5°F-7.5°C 82% 3.0 mph N4.8 kmh N -- 30.56 in1034.9 mb 0.00 in0.0 mm 0.00 in0.0 mm 0.00 in0.0 mm
11:05 PM 23.2°F-4.9°C 18.5°F-7.5°C 82% Calm Calm -- 30.56 in1034.9 mb 0.00 in0.0 mm 0.00 in0.0 mm 0.00 in0.0 mm
11:10 PM 23.2°F-4.9°C 18.5°F-7.5°C 82% Calm Calm -- 30.57 in1035.2 mb 0.00 in0.0 mm 0.00 in0.0 mm 0.00 in0.0 mm
11:15 PM 23.2°F-4.9°C 18.5°F-7.5°C 82% Calm Calm -- 30.56 in1034.9 mb 0.00 in0.0 mm 0.00 in0.0 mm 0.00 in0.0 mm
11:20 PM 23.2°F-4.9°C 18.5°F-7.5°C 82% Calm Calm 1.0 mph1.6 kmh 30.57 in1035.2 mb 0.00 in0.0 mm 0.00 in0.0 mm 0.00 in0.0 mm
11:25 PM 23.2°F-4.9°C 18.5°F-7.5°C 82% Calm Calm 1.0 mph1.6 kmh 30.57 in1035.2 mb 0.00 in0.0 mm 0.00 in0.0 mm 0.00 in0.0 mm
11:30 PM 23.1°F-4.9°C 18.4°F-7.6°C 82% Calm Calm -- 30.57 in1035.2 mb 0.00 in0.0 mm 0.00 in0.0 mm 0.00 in0.0 mm
11:35 PM 23.1°F-4.9°C 18.4°F-7.6°C 82% Calm Calm -- 30.57 in1035.2 mb 0.00 in0.0 mm 0.00 in0.0 mm 0.00 in0.0 mm
11:40 PM 23.1°F-4.9°C 18.4°F-7.6°C 82% Calm Calm -- 30.56 in1034.9 mb 0.00 in0.0 mm 0.00 in0.0 mm 0.00 in0.0 mm
11:45 PM 23.1°F-4.9°C 18.7°F-7.4°C 83% Calm Calm -- 30.56 in1034.9 mb 0.00 in0.0 mm 0.00 in0.0 mm 0.00 in0.0 mm
11:50 PM 23.1°F-4.9°C 18.7°F-7.4°C 83% 3.0 mph NE4.8 kmh NE -- 30.56 in1034.9 mb 0.00 in0.0 mm 0.00 in0.0 mm 0.00 in0.0 mm
11:55 PM 23.1°F-4.9°C 18.4°F-7.6°C 82% Calm Calm -- 30.56 in1034.9 mb 0.00 in0.0 mm 0.00 in0.0 mm 0.00 in0.0 mm